Terminal Aerodrome Forecast
Issued by NWS Grand Junction, CO

Home | Current Version | Previous Version | Text Only | Print | Product List | Glossary On
Versions: 1 2 3 4 5 6 7 8 9 10 11 12 13 14 15 16 17 18 19 20 21 22 23 24 25 26 27 28
391
FTUS45 KGJT 010522
TAFGJT
TAF
KGJT 010522Z 0106/0206 23004KT P6SM FEW250
     FM011100 12008KT P6SM FEW250
     FM011600 17007KT P6SM FEW250
     FM012000 30008KT P6SM FEW120
     FM020200 04006KT P6SM FEW250=

USA.gov is the U.S. government's official web portal to all federal, state and local government web resources and services.